• Join FlightAware (Why Join?)
  • Login
  • US Flag 
02:59PM EDT


 

Airport Tracker/Info


-or-


 

Live Flight TrackerFlight Track Log ✈ N588AC ✈ 02-May-2013 ✈ KBCB - KCRE

Flight Track Log - Related Links

Times and Time Zones

All times are in EDT time to prevent confusion due to time zone crossing. See the N588AC flight status page for this flight to view local times or setup timezone preferences in your user account.

Time Position Orientation Groundspeed Altitude Reporting Facility
EDT Latitude Longitude Course Direction KTS MPH feet Rate Location/Type
09:17AM 37.1506 -80.2981 160° South 184 212 7,300  Level Washington Center
09:19AM 37.0825 -80.2756 165° South 198 228 9,700 2,040 Climbing Washington Center
09:20AM 37.0064 -80.2500 165° South 232 267 11,500 2,100 Climbing Washington Center
09:20AM 36.9303 -80.2197 162° South 268 308 13,900 2,460 Climbing Washington Center
09:21AM 36.8644 -80.1975 165° South 282 325 16,400 2,100 Climbing Washington Center
09:22AM 36.8061 -80.2397 160° South  Level FlightAware Approximate
09:23AM 36.7390 -80.2099 160° South  Level FlightAware Approximate
09:23AM 36.7944 -80.1700 163° South 277 319 18,200  Level Washington Center
09:24AM 36.7342 -80.1144 144° Southeast 267 307 19,700 1,380 Climbing Washington Center
09:25AM 36.6500 -80.0758 160° South 285 328 21,000 660 Climbing Washington Center
09:25AM 36.5594 -80.0422 163° South 314 361 21,000  Level Washington Center
09:27AM 36.4625 -80.0108 165° South 344 396 21,000  Level Washington Center
09:28AM 36.3658 -79.9744 163° South 362 417 21,000  Level Washington Center
09:28AM 36.2667 -79.9483 168° South 362 417 21,000 480 Level Washington Center
09:29AM 36.1697 -79.9147 164° South 368 423 22,000 1,200 Climbing Washington Center
09:30AM 36.0708 -79.8808 165° South 368 423 23,500 1,380 Climbing Washington Center
09:32AM 35.9803 -79.8478 164° South 363 418 24,900 1,380 Climbing Washington Center
09:32AM 35.8914 -79.8200 166° South 347 399 26,300 1,020 Climbing Washington Center
09:33AM 35.7986 -79.7894 165° South 341 392 27,000 300 Climbing Washington Center
09:34AM 35.6997 -79.7533 163° South 351 404 27,000  Level Washington Center
09:36AM 35.5989 -79.7175 164° South 373 429 27,000  Level Washington Center
09:37AM 35.4956 -79.6842 165° South 379 436 27,000  Level Washington Center
09:37AM 35.3903 -79.6508 166° South 379 436 27,000  Level Washington Center
09:38AM 35.2892 -79.6175 165° South 379 436 27,000  Level Washington Center
09:39AM 35.1842 -79.5742 161° South 384 442 27,100 -900 Climbing Washington Center
09:40AM 35.0881 -79.5136 153° Southeast 384 442 25,300 -1,860 Descending Washington Center
09:41AM 34.9942 -79.4558 153° Southeast 389 448 23,500 -1,860 Descending Washington Center
09:42AM 34.9022 -79.3958 152° Southeast 383 441 21,600 -1,680 Descending Washington Center
09:44AM 34.8161 -79.3411 152° Southeast 370 426 20,100 -1,320 Descending Washington Center
09:45AM 34.7322 -79.2892 153° Southeast 358 412 19,000 -1,500 Descending Washington Center
09:46AM 34.6544 -79.2428 154° Southeast 333 383 17,200 -1,980 Descending Washington Center
09:47AM 34.5281 -79.1628 152° Southeast 330 380 14,100 -1,620 Descending Jacksonville Center
09:48AM 34.4539 -79.1181 154° Southeast 323 372 13,200 -1,020 Descending Jacksonville Center
09:49AM 34.3731 -79.0689 153° Southeast 323 372 12,100 -1,140 Descending Jacksonville Center
09:50AM 34.2964 -79.0219 153° Southeast 323 372 11,000 -1,320 Descending Jacksonville Center
09:51AM 34.2286 -78.9822 154° Southeast 305 351 9,500 -1,800 Descending Jacksonville Center
09:52AM 34.1606 -78.9400 153° Southeast 284 327 7,500 -2,160 Descending Jacksonville Center
09:53AM 34.0869 -78.9233 169° South 273 314 5,200 -1,800 Descending Jacksonville Center
09:54AM 34.0164 -78.9317 186° South 264 304 4,000 -600 Descending Jacksonville Center
09:55AM 33.9433 -78.9375 184° South 259 298 4,000  Level Jacksonville Center
09:56AM 33.8706 -78.9456 185° South 259 298 4,000 -240 Level Jacksonville Center
09:57AM 33.8117 -78.9283 166° South 229 264 3,600 -540 Descending Jacksonville Center
09:58AM 33.7731 -78.8900 140° Southeast 192 221 3,000 -300 Descending Jacksonville Center
09:59AM 33.7206 -78.8875 178° South 192 221 3,000  Level Jacksonville Center
10:01AM 33.7812 -78.7571 61° Northeast  Level FlightAware Approximate
10:08AM 33.8000 -78.7167 76° East  Level FlightAware Approximate
10:09AM 33.8117 -78.7239 76° East  Level Estimated
10:10AM 33.8117 -78.7239 76° East  Level Estimated